Terminal Aerodrome Forecast
Issued by NWS

Home | Current Version | Previous Version | Text Only | Print | Product List | Glossary On
Versions: 1 2 3 4 5 6 7 8 9 10 11 12 13 14 15
607
FTUS42 KMLB 290535
TAFFPR
TAF
KFPR 290535Z 2906/3006 24005KT P6SM VCSH FEW030 SCT100 BKN250
     FM291400 23008KT P6SM SCT030 SCT250
     FM292000 20009KT P6SM VCTS SCT040CB SCT060
     FM300200 21004KT P6SM SCT080 BKN250=

USA.gov is the U.S. government's official web portal to all federal, state and local government web resources and services.